createdAt,value
2023-02-19T00:00:17.871Z,8
2023-02-19T00:02:01.331Z,8
2023-02-19T00:03:44.672Z,8
2023-02-19T00:05:28.068Z,8
2023-02-19T00:07:11.461Z,8
2023-02-19T00:10:37.928Z,8
2023-02-19T00:12:21.334Z,8
2023-02-19T00:14:04.721Z,8
2023-02-19T00:15:48.114Z,8
2023-02-19T00:17:31.511Z,9
2023-02-19T00:19:14.907Z,8
2023-02-19T00:20:58.313Z,8
2023-02-19T00:22:41.707Z,9
2023-02-19T00:26:08.224Z,8
2023-02-19T00:27:51.593Z,8
2023-02-19T00:29:34.964Z,9
2023-02-19T00:31:18.365Z,9
2023-02-19T00:33:01.803Z,8
2023-02-19T00:34:45.171Z,8
2023-02-19T00:36:28.573Z,8
2023-02-19T00:38:11.943Z,8
2023-02-19T00:41:38.419Z,8
2023-02-19T00:43:21.816Z,8
2023-02-19T00:45:05.336Z,9
2023-02-19T00:46:48.693Z,9
2023-02-19T00:48:32.015Z,9
2023-02-19T00:50:15.414Z,9
2023-02-19T00:51:58.815Z,9
2023-02-19T00:57:08.055Z,8
2023-02-19T00:58:51.470Z,8
2023-02-19T01:00:34.859Z,9
2023-02-19T01:02:18.226Z,8
2023-02-19T01:04:01.619Z,9
2023-02-19T01:05:45.020Z,8
2023-02-19T01:07:28.422Z,8
2023-02-19T01:09:11.860Z,9
2023-02-19T01:10:55.527Z,9
2023-02-19T01:12:38.926Z,9
2023-02-19T01:14:22.305Z,9
2023-02-19T01:16:05.700Z,9
2023-02-19T01:17:49.090Z,8
2023-02-19T01:19:32.577Z,8
2023-02-19T01:21:15.878Z,8
2023-02-19T01:22:59.296Z,9
2023-02-19T01:26:25.763Z,2
2023-02-19T01:28:09.163Z,2
2023-02-19T01:29:52.559Z,1
2023-02-19T01:31:35.937Z,2
2023-02-19T01:33:19.342Z,1
2023-02-19T01:35:02.731Z,2
2023-02-19T01:36:46.138Z,1
2023-02-19T01:38:29.548Z,2
2023-02-19T01:41:56.013Z,2
2023-02-19T01:43:39.395Z,2
2023-02-19T01:45:22.881Z,2
2023-02-19T01:47:06.200Z,2
2023-02-19T01:48:49.583Z,2
2023-02-19T01:50:33.001Z,2
2023-02-19T01:52:16.428Z,2
2023-02-19T01:53:59.786Z,1
2023-02-19T01:57:26.265Z,2
2023-02-19T01:59:09.654Z,1
2023-02-19T02:00:53.040Z,1
2023-02-19T02:02:36.443Z,1
2023-02-19T02:06:03.241Z,1
2023-02-19T02:07:46.618Z,1
2023-02-19T02:09:30.032Z,1
2023-02-19T02:12:56.498Z,1
2023-02-19T02:14:39.881Z,1
2023-02-19T02:16:23.345Z,1
2023-02-19T02:18:06.676Z,1
2023-02-19T02:19:50.074Z,1
2023-02-19T02:21:33.486Z,0
2023-02-19T02:23:16.890Z,1
2023-02-19T02:25:00.335Z,1
2023-02-19T02:30:09.508Z,1
2023-02-19T02:31:52.912Z,1
2023-02-19T02:33:36.292Z,1
2023-02-19T02:35:19.697Z,1
2023-02-19T02:37:03.129Z,2
2023-02-19T02:38:46.503Z,1
2023-02-19T02:40:29.910Z,1
2023-02-19T02:42:13.296Z,1
2023-02-19T02:45:39.844Z,1
2023-02-19T02:47:23.233Z,2
2023-02-19T02:49:06.624Z,1
2023-02-19T02:50:49.995Z,1
2023-02-19T02:52:33.415Z,1
2023-02-19T02:54:16.792Z,1
2023-02-19T02:56:00.197Z,1
2023-02-19T02:57:43.598Z,1
2023-02-19T03:02:52.907Z,1
2023-02-19T03:04:36.280Z,2
2023-02-19T03:06:19.716Z,1
2023-02-19T03:08:03.003Z,1
2023-02-19T03:09:46.415Z,1
2023-02-19T03:11:29.812Z,1
2023-02-19T03:13:13.301Z,1
2023-02-19T03:14:56.548Z,1
2023-02-19T03:18:23.007Z,1
2023-02-19T03:20:06.421Z,1
2023-02-19T03:21:49.810Z,1
2023-02-19T03:23:33.206Z,1
2023-02-19T03:25:16.593Z,2
2023-02-19T03:26:59.989Z,0
2023-02-19T03:28:43.392Z,1
2023-02-19T03:30:26.781Z,1
2023-02-19T03:35:36.017Z,1
2023-02-19T03:37:19.435Z,2
2023-02-19T03:39:02.833Z,1
2023-02-19T03:40:46.238Z,1
2023-02-19T03:42:29.615Z,1
2023-02-19T03:44:13.017Z,1
2023-02-19T03:45:56.399Z,1
2023-02-19T03:47:39.804Z,1
2023-02-19T03:51:06.281Z,1
2023-02-19T03:52:49.661Z,1
2023-02-19T03:54:33.066Z,1
2023-02-19T03:56:16.466Z,1
2023-02-19T03:57:59.855Z,1
2023-02-19T03:59:43.258Z,1
2023-02-19T04:01:26.655Z,2
2023-02-19T04:03:10.057Z,1
2023-02-19T04:06:36.518Z,1
2023-02-19T04:08:19.938Z,1
2023-02-19T04:10:03.313Z,1
2023-02-19T04:11:46.710Z,1
2023-02-19T04:13:30.110Z,2
2023-02-19T04:15:13.509Z,1
2023-02-19T04:16:56.903Z,1
2023-02-19T04:18:40.303Z,1
2023-02-19T04:23:49.556Z,1
2023-02-19T04:25:32.959Z,1
2023-02-19T04:27:16.341Z,1
2023-02-19T04:28:59.733Z,1
2023-02-19T04:30:43.117Z,1
2023-02-19T04:32:26.509Z,1
2023-02-19T04:34:09.911Z,1
2023-02-19T04:35:53.391Z,1
2023-02-19T04:39:19.784Z,1
2023-02-19T04:41:03.166Z,1
2023-02-19T04:42:46.579Z,1
2023-02-19T04:44:29.960Z,1
2023-02-19T04:46:13.368Z,1
2023-02-19T04:47:56.758Z,1
2023-02-19T04:49:40.180Z,1
2023-02-19T04:51:23.551Z,1
2023-02-19T04:53:06.957Z,2
2023-02-19T04:54:50.645Z,1
2023-02-19T04:56:34.035Z,1
2023-02-19T04:58:17.440Z,1
2023-02-19T05:00:00.833Z,2
2023-02-19T05:01:44.234Z,1
2023-02-19T05:03:27.627Z,1
2023-02-19T05:05:11.089Z,1
2023-02-19T05:06:54.421Z,1
2023-02-19T05:12:03.691Z,1
2023-02-19T05:13:47.068Z,0
2023-02-19T05:15:30.459Z,2
2023-02-19T05:17:13.859Z,1
2023-02-19T05:18:57.244Z,1
2023-02-19T05:20:40.640Z,1
2023-02-19T05:22:24.052Z,1
2023-02-19T05:24:07.447Z,1
2023-02-19T05:29:16.677Z,1
2023-02-19T05:31:00.071Z,1
2023-02-19T05:32:43.470Z,2
2023-02-19T05:34:26.889Z,1
2023-02-19T05:36:10.271Z,1
2023-02-19T05:37:53.665Z,0
2023-02-19T05:39:37.066Z,1
2023-02-19T05:41:20.455Z,1
2023-02-19T05:43:03.834Z,1
2023-02-19T05:46:30.343Z,1
2023-02-19T05:48:13.707Z,1
2023-02-19T05:49:57.139Z,1
2023-02-19T05:51:40.499Z,1
2023-02-19T05:53:23.911Z,0
2023-02-19T05:55:07.296Z,1
2023-02-19T05:56:50.690Z,1
2023-02-19T05:58:34.111Z,1
2023-02-19T06:02:00.578Z,1
2023-02-19T06:03:43.963Z,1
2023-02-19T06:05:27.350Z,1
2023-02-19T06:07:10.761Z,1
2023-02-19T06:08:54.157Z,1
2023-02-19T06:10:37.567Z,1
2023-02-19T06:12:20.935Z,1
2023-02-19T06:14:04.341Z,1
2023-02-19T06:17:30.793Z,1
2023-02-19T06:19:14.339Z,1
2023-02-19T06:20:57.620Z,1
2023-02-19T06:22:41.068Z,1
2023-02-19T06:24:24.395Z,1
2023-02-19T06:26:07.781Z,1
2023-02-19T06:27:51.186Z,1
2023-02-19T06:29:34.596Z,0
2023-02-19T06:33:01.053Z,1
2023-02-19T06:34:44.495Z,1
2023-02-19T06:36:27.848Z,1
2023-02-19T06:38:11.249Z,2
2023-02-19T06:39:54.632Z,1
2023-02-19T06:41:38.030Z,1
2023-02-19T06:43:21.440Z,1
2023-02-19T06:45:04.837Z,2
2023-02-19T06:50:14.087Z,1
2023-02-19T06:51:57.469Z,1
2023-02-19T06:53:40.861Z,1
2023-02-19T06:55:24.268Z,0
2023-02-19T06:57:07.650Z,1
2023-02-19T06:58:51.063Z,1
2023-02-19T07:00:34.451Z,1
2023-02-19T07:02:17.842Z,1
2023-02-19T07:05:44.313Z,2
2023-02-19T07:07:27.797Z,1
2023-02-19T07:09:11.123Z,1
2023-02-19T07:10:54.508Z,1
2023-02-19T07:12:37.901Z,7
2023-02-19T07:14:21.325Z,12
2023-02-19T07:16:04.681Z,12
2023-02-19T07:17:48.089Z,13
2023-02-19T07:21:14.568Z,16
2023-02-19T07:22:57.960Z,17
2023-02-19T07:24:41.350Z,17
2023-02-19T07:26:24.739Z,17
2023-02-19T07:28:08.157Z,17
2023-02-19T07:29:51.563Z,16
2023-02-19T07:31:34.940Z,15
2023-02-19T07:33:18.322Z,16
2023-02-19T07:36:44.853Z,16
2023-02-19T07:38:28.193Z,18
2023-02-19T07:40:11.607Z,21
2023-02-19T07:41:55.005Z,23
2023-02-19T07:43:38.390Z,22
2023-02-19T07:45:21.821Z,27
2023-02-19T07:47:05.180Z,35
2023-02-19T07:48:48.572Z,31
2023-02-19T07:52:15.077Z,30
2023-02-19T07:53:58.442Z,24
2023-02-19T07:55:41.855Z,22
2023-02-19T07:57:25.235Z,23
2023-02-19T07:59:08.640Z,21
2023-02-19T08:00:52.018Z,22
2023-02-19T08:02:35.439Z,26
2023-02-19T08:04:18.894Z,37
2023-02-19T08:09:28.070Z,34
2023-02-19T08:11:11.455Z,37
2023-02-19T08:12:54.861Z,45
2023-02-19T08:14:38.261Z,58
2023-02-19T08:16:21.638Z,64
2023-02-19T08:18:05.064Z,78
2023-02-19T08:19:48.461Z,78
2023-02-19T08:21:31.833Z,71
2023-02-19T08:26:41.200Z,64
2023-02-19T08:28:24.469Z,72
2023-02-19T08:30:07.880Z,81
2023-02-19T08:31:51.279Z,84
2023-02-19T08:33:34.648Z,83
2023-02-19T08:35:18.073Z,87
2023-02-19T08:37:01.501Z,103
2023-02-19T08:38:44.878Z,97
2023-02-19T08:42:11.316Z,86
2023-02-19T08:43:54.731Z,83
2023-02-19T08:45:38.162Z,81
2023-02-19T08:47:21.555Z,75
2023-02-19T08:49:04.975Z,71
2023-02-19T08:50:48.342Z,76
2023-02-19T08:52:31.737Z,72
2023-02-19T08:54:15.146Z,73
2023-02-19T08:55:58.531Z,73
2023-02-19T08:59:25.130Z,83
2023-02-19T09:01:08.422Z,86
2023-02-19T09:02:51.784Z,87
2023-02-19T09:04:35.164Z,96
2023-02-19T09:06:18.593Z,102
2023-02-19T09:08:01.976Z,107
2023-02-19T09:09:45.384Z,109
2023-02-19T09:11:28.780Z,104
2023-02-19T09:16:37.999Z,91
2023-02-19T09:18:21.396Z,94
2023-02-19T09:20:04.782Z,97
2023-02-19T09:21:48.236Z,94
2023-02-19T09:23:31.563Z,94
2023-02-19T09:25:14.956Z,99
2023-02-19T09:26:58.464Z,103
2023-02-19T09:28:41.929Z,109
2023-02-19T09:32:08.261Z,114
2023-02-19T09:33:51.632Z,115
2023-02-19T09:35:35.022Z,116
2023-02-19T09:37:18.417Z,120
2023-02-19T09:39:01.807Z,127
2023-02-19T09:40:45.206Z,137
2023-02-19T09:42:28.619Z,139
2023-02-19T09:44:11.998Z,141
2023-02-19T09:49:21.272Z,203
2023-02-19T09:51:04.622Z,186
2023-02-19T09:52:48.056Z,139
2023-02-19T09:54:31.424Z,139
2023-02-19T09:56:14.817Z,139
2023-02-19T09:57:58.283Z,143
2023-02-19T09:59:41.676Z,151
2023-02-19T10:01:25.011Z,160
2023-02-19T10:04:51.497Z,160
2023-02-19T10:06:34.873Z,155
2023-02-19T10:08:18.286Z,152
2023-02-19T10:10:01.655Z,148
2023-02-19T10:11:45.063Z,142
2023-02-19T10:13:28.471Z,140
2023-02-19T10:15:11.864Z,144
2023-02-19T10:16:55.349Z,155
2023-02-19T10:18:38.952Z,164
2023-02-19T10:20:22.379Z,168
2023-02-19T10:22:05.748Z,181
2023-02-19T10:23:49.140Z,242
2023-02-19T10:25:32.718Z,210
2023-02-19T10:27:15.971Z,236
2023-02-19T10:28:59.447Z,174
2023-02-19T10:30:42.794Z,149
2023-02-19T10:34:09.245Z,134
2023-02-19T10:35:52.658Z,126
2023-02-19T10:37:36.036Z,115
2023-02-19T10:39:19.392Z,108
2023-02-19T10:41:02.812Z,113
2023-02-19T10:42:46.251Z,120
2023-02-19T10:44:29.686Z,121
2023-02-19T10:46:12.991Z,124
2023-02-19T10:49:39.487Z,129
2023-02-19T10:51:22.859Z,138
2023-02-19T10:53:06.264Z,146
2023-02-19T10:54:49.678Z,149
2023-02-19T10:56:33.068Z,143
2023-02-19T10:58:16.429Z,146
2023-02-19T10:59:59.894Z,150
2023-02-19T11:03:26.461Z,164
2023-02-19T11:05:09.679Z,177
2023-02-19T11:06:53.127Z,195
2023-02-19T11:08:36.465Z,190
2023-02-19T11:10:19.861Z,173
2023-02-19T11:12:03.290Z,170
2023-02-19T11:13:46.660Z,165
2023-02-19T11:15:30.072Z,179
2023-02-19T11:18:56.515Z,194
2023-02-19T11:20:39.945Z,207
2023-02-19T11:22:23.323Z,285
2023-02-19T11:24:06.708Z,213
2023-02-19T11:25:50.156Z,229
2023-02-19T11:27:33.517Z,226
2023-02-19T11:29:16.911Z,228
2023-02-19T11:31:00.304Z,183
2023-02-19T11:32:44.004Z,161
2023-02-19T11:34:27.463Z,156
2023-02-19T11:36:10.805Z,146
2023-02-19T11:37:54.199Z,123
2023-02-19T11:39:37.591Z,379
2023-02-19T11:41:20.984Z,366
2023-02-19T11:43:04.389Z,375
2023-02-19T11:44:47.793Z,376
2023-02-19T11:46:31.476Z,380
2023-02-19T11:48:14.894Z,412
2023-02-19T11:49:58.279Z,448
2023-02-19T11:51:41.701Z,468
2023-02-19T11:53:25.062Z,485
2023-02-19T11:55:08.476Z,503
2023-02-19T11:56:51.853Z,497
2023-02-19T11:58:35.268Z,493
2023-02-19T12:02:01.722Z,484
2023-02-19T12:03:45.128Z,488
2023-02-19T12:05:28.528Z,539
2023-02-19T12:07:11.986Z,549
2023-02-19T12:08:55.321Z,510
2023-02-19T12:10:38.896Z,466
2023-02-19T12:12:22.100Z,446
2023-02-19T12:14:05.508Z,440
2023-02-19T12:17:31.989Z,443
2023-02-19T12:19:15.391Z,433
2023-02-19T12:20:58.771Z,415
2023-02-19T12:22:42.241Z,419
2023-02-19T12:24:25.561Z,446
2023-02-19T12:26:08.952Z,438
2023-02-19T12:27:52.369Z,443
2023-02-19T12:29:35.745Z,472
2023-02-19T12:33:02.225Z,474
2023-02-19T12:34:45.689Z,457
2023-02-19T12:36:29.047Z,436
2023-02-19T12:38:12.465Z,434
2023-02-19T12:39:55.834Z,455
2023-02-19T12:41:39.302Z,473
2023-02-19T12:43:22.654Z,452
2023-02-19T12:45:06.031Z,432
2023-02-19T12:48:32.490Z,392
2023-02-19T12:50:15.948Z,508
2023-02-19T12:51:59.289Z,604
2023-02-19T12:53:42.693Z,667
2023-02-19T12:55:26.107Z,702
2023-02-19T12:57:09.501Z,707
2023-02-19T12:58:52.913Z,659
2023-02-19T13:00:36.264Z,620
2023-02-19T13:05:45.511Z,682
2023-02-19T13:07:28.898Z,516
2023-02-19T13:09:12.289Z,375
2023-02-19T13:10:55.726Z,256
2023-02-19T13:12:39.070Z,191
2023-02-19T13:14:22.550Z,170
2023-02-19T13:16:05.854Z,157
2023-02-19T13:21:15.106Z,136
2023-02-19T13:22:58.589Z,108
2023-02-19T13:24:41.915Z,75
2023-02-19T13:26:25.305Z,65
2023-02-19T13:28:08.715Z,86
2023-02-19T13:29:52.101Z,122
2023-02-19T13:31:35.505Z,163
2023-02-19T13:33:18.911Z,156
2023-02-19T13:36:45.365Z,151
2023-02-19T13:38:28.776Z,143
2023-02-19T13:40:12.165Z,129
2023-02-19T13:41:55.561Z,113
2023-02-19T13:43:38.963Z,102
2023-02-19T13:45:22.343Z,116
2023-02-19T13:47:05.736Z,134
2023-02-19T13:48:49.132Z,133
2023-02-19T13:52:15.657Z,108
2023-02-19T13:53:59.011Z,114
2023-02-19T13:55:42.408Z,138
2023-02-19T13:57:25.819Z,174
2023-02-19T13:59:09.312Z,202
2023-02-19T14:00:52.624Z,230
2023-02-19T14:02:36.009Z,200
2023-02-19T14:04:19.428Z,168
2023-02-19T14:07:45.869Z,144
2023-02-19T14:09:29.320Z,126
2023-02-19T14:11:12.794Z,111
2023-02-19T14:12:56.086Z,120
2023-02-19T14:14:39.542Z,135
2023-02-19T14:16:22.906Z,149
2023-02-19T14:18:06.308Z,139
2023-02-19T14:19:49.732Z,124
2023-02-19T14:23:16.142Z,151
2023-02-19T14:24:59.578Z,213
2023-02-19T14:26:42.901Z,256
2023-02-19T14:28:26.364Z,262
2023-02-19T14:30:09.683Z,305
2023-02-19T14:31:53.126Z,316
2023-02-19T14:33:36.490Z,307
2023-02-19T14:35:19.883Z,296
2023-02-19T14:40:29.134Z,290
2023-02-19T14:42:12.523Z,286
2023-02-19T14:43:55.907Z,276
2023-02-19T14:45:39.309Z,357
2023-02-19T14:47:22.725Z,248
2023-02-19T14:49:06.119Z,239
2023-02-19T14:50:49.508Z,234
2023-02-19T14:52:32.898Z,230
2023-02-19T14:55:59.365Z,199
2023-02-19T14:57:42.761Z,193
2023-02-19T14:59:26.169Z,191
2023-02-19T15:01:09.586Z,190
2023-02-19T15:02:52.960Z,189
2023-02-19T15:04:36.345Z,190
2023-02-19T15:06:19.754Z,184
2023-02-19T15:08:03.155Z,180
2023-02-19T15:11:29.626Z,161
2023-02-19T15:13:13.087Z,134
2023-02-19T15:14:56.429Z,113
2023-02-19T15:16:39.813Z,106
2023-02-19T15:18:23.225Z,92
2023-02-19T15:20:06.601Z,88
2023-02-19T15:21:50.026Z,83
2023-02-19T15:23:33.405Z,65
2023-02-19T15:28:42.642Z,66
2023-02-19T15:30:26.071Z,70
2023-02-19T15:32:09.466Z,65
2023-02-19T15:33:52.858Z,59
2023-02-19T15:35:36.235Z,64
2023-02-19T15:37:19.624Z,61
2023-02-19T15:39:03.046Z,59
2023-02-19T15:40:46.429Z,61
2023-02-19T15:44:12.916Z,72
2023-02-19T15:45:56.345Z,81
2023-02-19T15:47:39.713Z,83
2023-02-19T15:49:23.101Z,88
2023-02-19T15:51:06.498Z,93
2023-02-19T15:52:49.893Z,90
2023-02-19T15:54:33.287Z,89
2023-02-19T15:56:16.755Z,87
2023-02-19T15:59:43.209Z,80
2023-02-19T16:01:26.578Z,72
2023-02-19T16:03:09.954Z,68
2023-02-19T16:04:53.339Z,66
2023-02-19T16:06:36.742Z,59
2023-02-19T16:08:20.143Z,52
2023-02-19T16:10:03.532Z,46
2023-02-19T16:11:46.938Z,45
2023-02-19T16:16:56.192Z,36
2023-02-19T16:18:39.579Z,34
2023-02-19T16:22:06.375Z,37
2023-02-19T16:23:49.751Z,42
2023-02-19T16:25:33.201Z,45
2023-02-19T16:27:16.585Z,40
2023-02-19T16:29:00.002Z,34
2023-02-19T16:32:26.435Z,29
2023-02-19T16:34:09.872Z,25
2023-02-19T16:35:53.264Z,23
2023-02-19T16:37:36.661Z,21
2023-02-19T16:39:20.020Z,19
2023-02-19T16:41:03.411Z,19
2023-02-19T16:42:46.867Z,11
2023-02-19T16:44:30.198Z,11
2023-02-19T16:47:56.681Z,11
2023-02-19T16:49:40.081Z,3
2023-02-19T16:51:23.470Z,3
2023-02-19T16:53:06.867Z,15
2023-02-19T16:54:50.258Z,16
2023-02-19T16:56:33.747Z,9
2023-02-19T16:58:17.055Z,9
2023-02-19T17:00:00.665Z,9
2023-02-19T17:03:26.923Z,10
2023-02-19T17:05:10.319Z,9
2023-02-19T17:06:53.739Z,9
2023-02-19T17:08:37.123Z,9
2023-02-19T17:10:20.520Z,9
2023-02-19T17:12:03.918Z,9
2023-02-19T17:13:47.322Z,9
2023-02-19T17:15:30.719Z,9
2023-02-19T17:18:57.182Z,10
2023-02-19T17:20:40.610Z,9
2023-02-19T17:22:23.977Z,9
2023-02-19T17:24:07.379Z,9
2023-02-19T17:25:50.764Z,10
2023-02-19T17:27:34.169Z,9
2023-02-19T17:29:17.590Z,9
2023-02-19T17:31:00.975Z,9
2023-02-19T17:32:44.667Z,9
2023-02-19T17:34:28.062Z,9
2023-02-19T17:36:11.460Z,9
2023-02-19T17:37:54.867Z,9
2023-02-19T17:39:38.268Z,9
2023-02-19T17:41:21.696Z,9
2023-02-19T17:43:05.051Z,9
2023-02-19T17:44:48.440Z,9
2023-02-19T17:48:14.925Z,9
2023-02-19T17:49:58.308Z,10
2023-02-19T17:53:25.086Z,9
2023-02-19T17:55:08.491Z,9
2023-02-19T17:56:51.913Z,12
2023-02-19T17:58:35.298Z,10
2023-02-19T18:03:44.530Z,9
2023-02-19T18:05:27.931Z,10
2023-02-19T18:07:11.318Z,9
2023-02-19T18:08:54.737Z,9
2023-02-19T18:10:38.107Z,9
2023-02-19T18:12:21.530Z,9
2023-02-19T18:14:04.914Z,9
2023-02-19T18:17:31.406Z,9
2023-02-19T18:19:14.782Z,6
2023-02-19T18:20:58.173Z,9
2023-02-19T18:22:41.576Z,9
2023-02-19T18:24:24.951Z,9
2023-02-19T18:26:08.360Z,9
2023-02-19T18:27:51.797Z,9
2023-02-19T18:29:35.159Z,10
2023-02-19T18:33:01.615Z,10
2023-02-19T18:34:45.032Z,9
2023-02-19T18:36:28.406Z,8
2023-02-19T18:38:11.868Z,9
2023-02-19T18:39:55.205Z,9
2023-02-19T18:41:38.620Z,9
2023-02-19T18:43:22.007Z,9
2023-02-19T18:48:31.282Z,8
2023-02-19T18:50:14.642Z,9
2023-02-19T18:51:58.077Z,10
2023-02-19T18:53:41.458Z,9
2023-02-19T18:55:24.890Z,9
2023-02-19T18:57:08.219Z,10
2023-02-19T18:58:51.632Z,10
2023-02-19T19:04:00.899Z,9
2023-02-19T19:05:44.268Z,9
2023-02-19T19:07:27.721Z,9
2023-02-19T19:09:11.121Z,9
2023-02-19T19:10:54.465Z,9
2023-02-19T19:12:37.877Z,9
2023-02-19T19:14:21.238Z,9
2023-02-19T19:19:30.508Z,6
2023-02-19T19:21:13.888Z,9
2023-02-19T19:22:57.320Z,9
2023-02-19T19:24:40.728Z,8
2023-02-19T19:26:24.080Z,9
2023-02-19T19:28:07.472Z,9
2023-02-19T19:29:50.862Z,8
2023-02-19T19:31:34.288Z,9
2023-02-19T19:33:18.014Z,8
2023-02-19T19:35:01.363Z,9
2023-02-19T19:36:44.792Z,9
2023-02-19T19:38:28.156Z,9
2023-02-19T19:40:11.629Z,9
2023-02-19T19:41:54.972Z,9
2023-02-19T19:43:38.372Z,9
2023-02-19T19:48:47.643Z,9
2023-02-19T19:50:30.978Z,9
2023-02-19T19:52:14.378Z,9
2023-02-19T19:53:57.779Z,9
2023-02-19T19:55:41.190Z,9
2023-02-19T19:57:24.575Z,9
2023-02-19T19:59:08.007Z,8
2023-02-19T20:04:17.199Z,8
2023-02-19T20:06:00.643Z,8
2023-02-19T20:07:43.997Z,8
2023-02-19T20:09:27.391Z,8
2023-02-19T20:11:10.787Z,9
2023-02-19T20:12:54.352Z,9
2023-02-19T20:14:37.560Z,9
2023-02-19T20:18:04.044Z,9
2023-02-19T20:19:47.457Z,8
2023-02-19T20:23:14.278Z,9
2023-02-19T20:24:57.792Z,9
2023-02-19T20:26:41.011Z,9
2023-02-19T20:28:24.444Z,9
2023-02-19T20:30:07.927Z,8
2023-02-19T20:33:34.303Z,9
2023-02-19T20:35:17.696Z,9
2023-02-19T20:37:01.082Z,10
2023-02-19T20:38:44.500Z,8
2023-02-19T20:40:27.951Z,9
2023-02-19T20:42:11.276Z,9
2023-02-19T20:43:54.670Z,9
2023-02-19T20:49:03.903Z,9
2023-02-19T20:50:47.308Z,8
2023-02-19T20:52:30.704Z,9
2023-02-19T20:54:14.115Z,8
2023-02-19T20:55:57.502Z,8
2023-02-19T20:57:40.890Z,10
2023-02-19T20:59:24.307Z,9
2023-02-19T21:01:07.676Z,9
2023-02-19T21:04:34.189Z,9
2023-02-19T21:06:17.554Z,9
2023-02-19T21:08:00.944Z,9
2023-02-19T21:09:44.359Z,9
2023-02-19T21:11:27.759Z,9
2023-02-19T21:13:11.151Z,8
2023-02-19T21:14:54.519Z,9
2023-02-19T21:16:37.940Z,9
2023-02-19T21:20:04.394Z,9
2023-02-19T21:21:47.789Z,9
2023-02-19T21:23:31.210Z,9
2023-02-19T21:25:14.585Z,9
2023-02-19T21:26:57.982Z,8
2023-02-19T21:28:41.392Z,8
2023-02-19T21:30:24.806Z,8
2023-02-19T21:32:08.179Z,8
2023-02-19T21:33:51.883Z,9
2023-02-19T21:35:35.275Z,9
2023-02-19T21:37:18.676Z,9
2023-02-19T21:39:02.066Z,9
2023-02-19T21:40:45.479Z,9
2023-02-19T21:42:28.859Z,9
2023-02-19T21:44:12.239Z,9
2023-02-19T21:45:55.643Z,8
2023-02-19T21:49:22.132Z,8
2023-02-19T21:51:05.530Z,9
2023-02-19T21:52:48.917Z,8
2023-02-19T21:54:32.317Z,8
2023-02-19T21:56:15.758Z,9
2023-02-19T21:57:59.126Z,9
2023-02-19T21:59:42.503Z,8
2023-02-19T22:01:25.886Z,9
2023-02-19T22:03:09.599Z,8
2023-02-19T22:04:53.003Z,8
2023-02-19T22:06:36.373Z,9
2023-02-19T22:08:19.781Z,8
2023-02-19T22:10:03.181Z,9
2023-02-19T22:11:46.605Z,10
2023-02-19T22:13:29.978Z,9
2023-02-19T22:15:13.392Z,8
2023-02-19T22:18:39.840Z,9
2023-02-19T22:20:23.261Z,8
2023-02-19T22:22:06.635Z,9
2023-02-19T22:23:50.029Z,9
2023-02-19T22:25:33.425Z,10
2023-02-19T22:27:16.837Z,7
2023-02-19T22:29:00.228Z,7
2023-02-19T22:30:43.625Z,8
2023-02-19T22:34:10.109Z,9
2023-02-19T22:35:53.496Z,9
2023-02-19T22:37:36.884Z,8
2023-02-19T22:39:20.282Z,9
2023-02-19T22:41:03.675Z,8
2023-02-19T22:42:47.122Z,9
2023-02-19T22:44:30.463Z,8
2023-02-19T22:46:13.857Z,9
2023-02-19T22:47:57.609Z,9
2023-02-19T22:49:41.040Z,8
2023-02-19T22:51:24.359Z,8
2023-02-19T22:53:07.784Z,8
2023-02-19T22:54:51.297Z,9
2023-02-19T22:56:34.687Z,8
2023-02-19T22:58:17.950Z,8
2023-02-19T23:00:01.456Z,9
2023-02-19T23:03:27.806Z,8
2023-02-19T23:05:11.204Z,8
2023-02-19T23:06:54.610Z,8
2023-02-19T23:08:38.007Z,9
2023-02-19T23:10:21.390Z,8
2023-02-19T23:12:04.806Z,9
2023-02-19T23:13:48.189Z,8
2023-02-19T23:18:57.432Z,9
2023-02-19T23:20:40.833Z,8
2023-02-19T23:22:24.218Z,8
2023-02-19T23:24:07.623Z,9
2023-02-19T23:25:51.050Z,8
2023-02-19T23:27:34.416Z,9
2023-02-19T23:29:17.808Z,9
2023-02-19T23:31:01.219Z,8
2023-02-19T23:34:27.681Z,1
2023-02-19T23:36:11.091Z,1
2023-02-19T23:37:54.472Z,2
2023-02-19T23:39:37.947Z,2
2023-02-19T23:41:21.256Z,2
2023-02-19T23:43:04.680Z,2
2023-02-19T23:44:48.097Z,2
2023-02-19T23:49:57.293Z,2
2023-02-19T23:51:40.691Z,2
2023-02-19T23:53:24.095Z,2
2023-02-19T23:55:07.494Z,2
2023-02-19T23:56:50.884Z,2
